Time;durP1;ratioP1;P1;durP2;ratioP2;P2;SDS_P1;SDS_P2;PMS_P1;PMS_P2;Temp;Humidity;BMP_temperature;BMP_pressure;BME280_temperature;BME280_humidity;BME280_pressure;Samples;Min_cycle;Max_cycle;Signal;HPM_P1;HPM_P2
2023/08/31 00:01:22;;;;;;;3.80;3.40;;;;;;;16.97;100.00;98246.83;109679;1250;59229;-70
2023/08/31 00:03:49;;;;;;;7.00;4.40;;;;;;;16.94;100.00;98242.49;109721;1250;66530;-68
2023/08/31 00:06:16;;;;;;;3.90;2.80;;;;;;;16.90;100.00;98234.56;109652;1250;72582;-70
2023/08/31 00:08:42;;;;;;;5.20;3.00;;;;;;;16.85;100.00;98231.41;109588;1250;59498;-70
2023/08/31 00:11:09;;;;;;;6.30;3.20;;;;;;;16.82;100.00;98232.32;109706;1250;60014;-70
2023/08/31 00:13:36;;;;;;;3.40;3.10;;;;;;;16.79;100.00;98229.14;109681;1250;59257;-69
2023/08/31 00:16:02;;;;;;;5.00;3.60;;;;;;;16.77;100.00;98229.91;109619;1250;67817;-69
2023/08/31 00:18:29;;;;;;;5.30;3.00;;;;;;;16.74;100.00;98230.05;109649;1250;72877;-70
2023/08/31 00:20:56;;;;;;;7.40;3.40;;;;;;;16.71;100.00;98228.88;109638;1250;60390;-69
2023/08/31 00:23:23;;;;;;;4.00;3.60;;;;;;;16.68;100.00;98228.98;109667;1250;58843;-69
2023/08/31 00:25:52;;;;;;;4.10;3.40;;;;;;;16.68;100.00;98233.75;109649;1250;73176;-69
2023/08/31 00:28:18;;;;;;;5.80;3.60;;;;;;;16.67;100.00;98234.91;109673;1250;66434;-69
2023/08/31 00:30:45;;;;;;;5.10;3.50;;;;;;;16.64;100.00;98232.41;109618;1250;72673;-70
2023/08/31 00:33:13;;;;;;;4.50;3.30;;;;;;;16.65;100.00;98239.18;109678;1250;60913;-70
2023/08/31 00:35:46;;;;;;;3.50;3.20;;;;;;;16.65;100.00;98236.04;109634;1250;60150;-69
2023/08/31 00:38:13;;;;;;;4.50;3.50;;;;;;;16.69;100.00;98235.34;109689;1250;74380;-69
2023/08/31 00:40:45;;;;;;;6.90;4.10;;;;;;;16.70;100.00;98239.98;109740;1250;67770;-70
2023/08/31 00:43:15;;;;;;;4.90;3.50;;;;;;;16.73;100.00;98254.91;109644;1250;71267;-69
2023/08/31 00:45:41;;;;;;;5.00;3.30;;;;;;;16.75;100.00;98267.14;109553;1250;60957;-69
2023/08/31 00:48:08;;;;;;;5.00;3.20;;;;;;;16.73;100.00;98272.48;109584;1250;59031;-69
2023/08/31 00:50:35;;;;;;;4.70;3.70;;;;;;;16.73;100.00;98278.88;109667;1250;73412;-69
2023/08/31 00:53:03;;;;;;;6.70;3.20;;;;;;;16.75;100.00;98272.63;109587;1250;66891;-69
2023/08/31 00:55:32;;;;;;;4.00;3.60;;;;;;;16.75;100.00;98274.95;109519;1250;72469;-69
2023/08/31 00:57:59;;;;;;;5.80;3.60;;;;;;;16.76;100.00;98271.04;109652;1250;60943;-69
2023/08/31 01:00:47;;;;;;;4.30;3.20;;;;;;;16.79;100.00;98259.59;109579;1250;60485;-69
2023/08/31 01:03:28;;;;;;;4.40;4.00;;;;;;;16.85;100.00;98253.64;109648;1250;74723;-69
2023/08/31 01:06:01;;;;;;;4.30;3.50;;;;;;;16.92;100.00;98248.73;109402;1250;66558;-69
2023/08/31 01:08:46;;;;;;;3.60;3.30;;;;;;;17.01;100.00;98247.76;109570;1250;72032;-69
2023/08/31 01:11:22;;;;;;;4.40;3.40;;;;;;;17.08;100.00;98249.55;109525;1250;61748;-69
2023/08/31 01:13:52;;;;;;;4.30;3.40;;;;;;;17.15;100.00;98249.38;109712;1250;59105;-69
2023/08/31 01:16:20;;;;;;;5.10;3.50;;;;;;;17.22;100.00;98251.58;109661;1250;73172;-69
2023/08/31 01:18:46;;;;;;;5.60;3.70;;;;;;;17.27;100.00;98251.95;109628;1250;67791;-69
2023/08/31 01:21:16;;;;;;;6.70;4.10;;;;;;;17.28;100.00;98250.95;109562;1250;72675;-69
2023/08/31 01:23:55;;;;;;;5.30;4.70;;;;;;;17.26;100.00;98249.04;109659;1250;60564;-69
2023/08/31 01:26:22;;;;;;;4.40;3.30;;;;;;;17.22;100.00;98249.50;109665;1250;58826;-69
2023/08/31 01:28:50;;;;;;;5.90;3.20;;;;;;;17.16;100.00;98246.14;109616;1249;74838;-69
2023/08/31 01:31:17;;;;;;;3.60;3.30;;;;;;;17.06;100.00;98249.11;109690;1250;67139;-69
2023/08/31 01:34:34;;;;;;;7.50;3.80;;;;;;;17.01;100.00;98256.42;109572;1250;72799;-70
2023/08/31 01:43:51;;;;;;;6.10;4.10;;;;;;;16.97;100.00;98282.90;109614;1250;73103;-69
2023/08/31 01:46:18;;;;;;;4.40;4.00;;;;;;;17.01;100.00;98288.81;109471;1250;66447;-68
2023/08/31 01:48:44;;;;;;;4.70;4.30;;;;;;;17.03;100.00;98295.52;109660;1250;72174;-68
2023/08/31 01:51:11;;;;;;;6.50;4.30;;;;;;;17.05;100.00;98305.98;109529;1250;61830;-71
2023/08/31 01:53:39;;;;;;;5.40;4.30;;;;;;;17.07;100.00;98306.30;109721;1250;59986;-69
2023/08/31 01:56:07;;;;;;;7.40;4.20;;;;;;;17.08;100.00;98302.62;109575;1250;74761;-69
2023/08/31 01:58:34;;;;;;;7.70;4.30;;;;;;;17.06;100.00;98295.84;109552;1250;66527;-69
2023/08/31 02:01:01;;;;;;;6.20;4.50;;;;;;;17.04;100.00;98304.04;109585;1250;72433;-69
2023/08/31 02:03:28;;;;;;;6.60;4.30;;;;;;;17.03;100.00;98310.98;109517;1250;61927;-69
2023/08/31 02:05:54;;;;;;;6.20;4.00;;;;;;;17.03;100.00;98312.06;109524;1250;58934;-69
2023/08/31 02:08:21;;;;;;;8.60;4.80;;;;;;;17.03;100.00;98314.81;109617;1250;59543;-69
2023/08/31 02:10:48;;;;;;;5.80;5.20;;;;;;;17.04;100.00;98313.76;109453;1250;67655;-69
2023/08/31 02:13:21;;;;;;;7.60;4.30;;;;;;;17.05;100.00;98312.38;109567;1250;71411;-69
2023/08/31 02:15:51;;;;;;;6.40;4.20;;;;;;;17.05;100.00;98303.88;109573;1250;60790;-69
2023/08/31 02:18:19;;;;;;;7.90;4.60;;;;;;;17.04;100.00;98298.50;109646;1252;60360;-69
2023/08/31 02:20:46;;;;;;;5.50;4.50;;;;;;;17.04;100.00;98294.52;109674;1250;73503;-69
2023/08/31 02:23:13;;;;;;;7.60;4.50;;;;;;;17.05;100.00;98291.91;109672;1250;68439;-70
2023/08/31 02:25:40;;;;;;;7.80;5.20;;;;;;;17.06;100.00;98289.68;109640;1250;72754;-69
2023/08/31 02:28:08;;;;;;;7.40;5.00;;;;;;;17.07;100.00;98283.92;109584;1250;61416;-69
2023/08/31 02:30:37;;;;;;;5.20;4.70;;;;;;;17.06;100.00;98279.73;109656;1250;60249;-70
2023/08/31 02:33:05;;;;;;;5.30;4.80;;;;;;;17.07;100.00;98276.16;109537;1250;74622;-69
2023/08/31 02:35:32;;;;;;;8.70;5.40;;;;;;;17.09;100.00;98277.96;109738;1250;67860;-69
2023/08/31 02:37:59;;;;;;;6.80;4.30;;;;;;;17.10;100.00;98278.08;109574;1250;72465;-69
2023/08/31 02:40:25;;;;;;;5.70;4.50;;;;;;;17.12;100.00;98279.09;109632;1250;58930;-69
2023/08/31 02:42:54;;;;;;;6.00;4.50;;;;;;;17.14;100.00;98279.88;109640;1250;60210;-69
2023/08/31 02:45:21;;;;;;;7.00;4.90;;;;;;;17.16;100.00;98288.88;109530;1249;74365;-69
2023/08/31 02:47:49;;;;;;;6.50;4.60;;;;;;;17.17;100.00;98292.42;109613;1250;67887;-69
2023/08/31 02:50:16;;;;;;;4.80;4.10;;;;;;;17.16;100.00;98293.51;109582;1250;72939;-69
2023/08/31 02:52:43;;;;;;;6.50;4.60;;;;;;;17.17;100.00;98299.93;109565;1250;60647;-69
2023/08/31 02:55:10;;;;;;;4.80;3.80;;;;;;;17.19;100.00;98307.05;109562;1250;59015;-69
2023/08/31 02:57:36;;;;;;;4.80;4.00;;;;;;;17.15;100.00;98307.59;109670;1250;74681;-69
2023/08/31 03:00:08;;;;;;;5.60;3.50;;;;;;;17.13;100.00;98304.52;109511;1250;66549;-69
2023/08/31 03:02:36;;;;;;;5.10;2.90;;;;;;;17.14;100.00;98297.12;109442;1250;72658;-69
2023/08/31 03:05:03;;;;;;;3.40;3.00;;;;;;;17.13;100.00;98293.73;109526;1250;61766;-69
2023/08/31 03:07:30;;;;;;;2.90;2.50;;;;;;;17.15;100.00;98282.79;109605;1250;59285;-69
2023/08/31 03:09:57;;;;;;;4.10;2.90;;;;;;;17.16;100.00;98279.80;109689;1250;73431;-69
2023/08/31 03:12:23;;;;;;;3.00;2.50;;;;;;;17.17;100.00;98275.22;109667;1250;67729;-70
2023/08/31 03:14:50;;;;;;;4.80;2.60;;;;;;;17.13;100.00;98274.81;109536;1250;71195;-70
2023/08/31 03:17:17;;;;;;;2.80;2.40;;;;;;;17.07;100.00;98281.23;109620;1250;61698;-70
2023/08/31 03:19:44;;;;;;;2.60;2.40;;;;;;;17.00;100.00;98279.45;109718;1250;58932;-70
2023/08/31 03:22:11;;;;;;;2.90;2.20;;;;;;;16.94;100.00;98277.46;109590;1250;74585;-70
2023/08/31 03:24:37;;;;;;;3.00;2.60;;;;;;;16.90;100.00;98280.45;109560;1250;67941;-71
2023/08/31 03:27:04;;;;;;;3.60;2.50;;;;;;;16.87;100.00;98278.55;109657;1251;71290;-70
2023/08/31 03:29:32;;;;;;;2.80;2.60;;;;;;;16.88;100.00;98272.77;109627;1250;62539;-70
2023/08/31 03:31:59;;;;;;;2.50;2.30;;;;;;;16.89;100.00;98271.19;109589;1250;60165;-70
2023/08/31 03:34:30;;;;;;;5.50;2.40;;;;;;;16.95;100.00;98273.80;109518;1250;73216;-70
2023/08/31 03:36:58;;;;;;;2.40;2.20;;;;;;;17.02;100.00;98274.39;109670;1250;66460;-70
2023/08/31 03:39:25;;;;;;;2.60;2.40;;;;;;;17.10;100.00;98271.20;109685;1250;72579;-70
2023/08/31 03:41:52;;;;;;;2.20;2.00;;;;;;;17.15;100.00;98271.41;109412;1250;60527;-70
2023/08/31 03:44:20;;;;;;;2.70;2.10;;;;;;;17.20;100.00;98273.00;109506;1250;60078;-70
2023/08/31 03:46:49;;;;;;;2.80;2.40;;;;;;;17.22;100.00;98272.83;109553;1250;73354;-70
2023/08/31 03:49:16;;;;;;;3.90;2.40;;;;;;;17.22;100.00;98276.77;109451;1250;66621;-69
2023/08/31 03:51:43;;;;;;;3.30;2.60;;;;;;;17.22;100.00;98275.35;109623;1250;72665;-69
2023/08/31 03:54:10;;;;;;;2.90;2.10;;;;;;;17.22;100.00;98269.93;109530;1250;61852;-70
2023/08/31 03:56:36;;;;;;;3.70;2.60;;;;;;;17.26;100.00;98263.59;109547;1250;60189;-70
2023/08/31 03:59:04;;;;;;;2.30;2.10;;;;;;;17.32;100.00;98257.39;109514;1250;73360;-69
2023/08/31 04:01:31;;;;;;;2.50;2.20;;;;;;;17.38;100.00;98261.70;109581;1250;66716;-69
2023/08/31 04:03:57;;;;;;;6.10;2.20;;;;;;;17.42;100.00;98265.30;109589;1250;71185;-69
2023/08/31 04:06:24;;;;;;;1.90;1.80;;;;;;;17.48;100.00;98270.27;109573;1250;61701;-70
2023/08/31 04:08:51;;;;;;;2.20;1.80;;;;;;;17.62;100.00;98277.36;109674;1250;58944;-70
2023/08/31 04:11:20;;;;;;;2.20;2.10;;;;;;;17.81;100.00;98279.72;109673;1250;75652;-69
2023/08/31 04:13:47;;;;;;;3.20;2.20;;;;;;;18.03;100.00;98278.70;109653;1250;67714;-68
2023/08/31 04:16:13;;;;;;;4.80;2.20;;;;;;;18.28;100.00;98280.63;109653;1250;72618;-68
2023/08/31 04:18:51;;;;;;;2.10;1.80;;;;;;;18.57;100.00;98283.46;109485;1250;61784;-69
2023/08/31 04:21:18;;;;;;;;;;;;;;;18.84;100.00;98280.20;109708;1250;58890;-69
2023/08/31 04:23:45;;;;;;;2.10;2.00;;;;;;;19.06;100.00;98282.86;109563;1251;73408;-70
2023/08/31 04:26:12;;;;;;;3.50;1.80;;;;;;;19.27;100.00;98291.55;109610;1250;67666;-69
2023/08/31 04:28:40;;;;;;;1.80;1.70;;;;;;;19.48;100.00;98292.39;109595;1250;72997;-69
2023/08/31 04:31:07;;;;;;;2.10;1.60;;;;;;;19.69;100.00;98295.70;109573;1250;62784;-71
2023/08/31 04:33:34;;;;;;;2.10;1.30;;;;;;;19.92;100.00;98296.00;109606;1250;59053;-71
2023/08/31 04:36:01;;;;;;;1.80;1.40;;;;;;;20.19;100.00;98298.09;109626;1250;74384;-70
2023/08/31 04:38:28;;;;;;;1.90;1.50;;;;;;;20.49;100.00;98300.40;109618;1250;68721;-70
2023/08/31 04:40:58;;;;;;;1.80;1.50;;;;;;;20.77;100.00;98301.45;109569;1250;71208;-77
2023/08/31 04:43:24;;;;;;;3.10;2.00;;;;;;;21.02;100.00;98291.17;109476;1253;62143;-71
2023/08/31 04:45:52;;;;;;;3.70;1.80;;;;;;;21.15;100.00;98289.52;109639;1250;61385;-70
2023/08/31 04:48:18;;;;;;;4.30;2.20;;;;;;;21.21;100.00;98280.54;109506;1250;74500;-72
2023/08/31 04:50:45;;;;;;;3.00;2.00;;;;;;;21.27;100.00;98277.35;109705;1250;68159;-71
2023/08/31 04:53:12;;;;;;;2.60;2.20;;;;;;;21.40;100.00;98278.67;109676;1250;72370;-71
2023/08/31 04:55:39;;;;;;;3.40;1.90;;;;;;;21.59;100.00;98279.25;109673;1250;60261;-73
2023/08/31 04:58:06;;;;;;;5.70;2.50;;;;;;;21.76;100.00;98277.08;109630;1250;60457;-70
2023/08/31 05:00:32;;;;;;;2.80;2.00;;;;;;;21.96;100.00;98288.69;109477;1250;74422;-72
2023/08/31 05:02:58;;;;;;;3.10;2.00;;;;;;;22.02;100.00;98291.83;109644;1250;59385;-73
2023/08/31 05:05:25;;;;;;;2.30;1.60;;;;;;;21.87;100.00;98297.30;109577;1250;71324;-76
2023/08/31 05:07:52;;;;;;;2.10;1.80;;;;;;;21.57;100.00;98295.59;109607;1250;58943;-69
2023/08/31 05:10:19;;;;;;;2.70;2.00;;;;;;;21.17;100.00;98303.02;109660;1250;58877;-72
2023/08/31 05:12:45;;;;;;;3.10;2.20;;;;;;;20.89;100.00;98306.90;109602;1252;74691;-70
2023/08/31 05:15:12;;;;;;;1.90;1.70;;;;;;;20.73;100.00;98315.10;109471;1249;197637;-71
2023/08/31 05:17:39;;;;;;;5.60;2.60;;;;;;;20.66;100.00;98320.15;109613;1250;72467;-72
2023/08/31 05:20:08;;;;;;;2.30;2.00;;;;;;;20.62;100.00;98320.40;109621;1250;61926;-72
2023/08/31 05:22:34;;;;;;;2.00;1.80;;;;;;;20.57;100.00;98314.00;109561;1251;60152;-70
2023/08/31 05:25:01;;;;;;;2.40;2.20;;;;;;;20.58;100.00;98316.94;109562;1250;74457;-74
2023/08/31 05:27:28;;;;;;;3.80;2.60;;;;;;;20.76;100.00;98323.94;109676;1250;66465;-69
2023/08/31 05:29:54;;;;;;;3.60;2.20;;;;;;;20.88;100.00;98331.67;109638;1250;71078;-69
2023/08/31 05:32:21;;;;;;;5.30;2.40;;;;;;;20.89;100.00;98335.72;109630;1250;58919;-70
2023/08/31 05:34:47;;;;;;;4.40;2.50;;;;;;;20.81;100.00;98334.45;109553;1250;59128;-69
2023/08/31 05:37:14;;;;;;;2.20;2.10;;;;;;;20.64;100.00;98334.64;109652;1250;74305;-70
2023/08/31 05:39:40;;;;;;;3.60;2.00;;;;;;;20.59;100.00;98336.98;109625;1250;68648;-69
2023/08/31 05:42:07;;;;;;;2.70;2.50;;;;;;;20.58;100.00;98337.46;109562;1250;59087;-69
2023/08/31 05:44:33;;;;;;;3.20;2.40;;;;;;;20.51;100.00;98343.20;109559;1250;61633;-68
2023/08/31 05:47:00;;;;;;;3.60;2.00;;;;;;;20.37;100.00;98345.81;109537;1251;59192;-67
2023/08/31 05:49:27;;;;;;;1.80;1.70;;;;;;;20.24;100.00;98348.67;109559;1250;74611;-71
2023/08/31 05:51:54;;;;;;;2.30;2.10;;;;;;;20.10;100.00;98354.77;109594;1250;66635;-69
2023/08/31 05:54:20;;;;;;;3.00;2.00;;;;;;;19.92;100.00;98356.94;109655;1250;71520;-66
2023/08/31 05:56:47;;;;;;;3.50;2.10;;;;;;;19.79;100.00;98360.21;109618;1250;60105;-71
2023/08/31 05:59:14;;;;;;;4.10;2.50;;;;;;;19.71;100.00;98366.73;109586;1250;58973;-68
2023/08/31 06:01:40;;;;;;;2.30;2.10;;;;;;;19.65;100.00;98366.67;109617;1250;59531;-69
2023/08/31 06:04:07;;;;;;;2.80;2.00;;;;;;;19.59;100.00;98370.08;109645;1250;67620;-72
2023/08/31 06:06:34;;;;;;;4.20;2.30;;;;;;;19.58;100.00;98375.61;109588;1250;71586;-73
2023/08/31 06:09:00;;;;;;;6.20;2.80;;;;;;;19.55;100.00;98377.26;109483;1250;59498;-68
2023/08/31 06:11:27;;;;;;;3.40;2.70;;;;;;;19.48;100.00;98376.97;109657;1250;60039;-69
2023/08/31 06:13:54;;;;;;;3.10;2.80;;;;;;;19.43;100.00;98382.56;109581;1251;73031;-68
2023/08/31 06:16:20;;;;;;;3.10;2.80;;;;;;;19.38;100.00;98384.29;109562;1250;66851;-70
2023/08/31 06:18:47;;;;;;;2.90;2.60;;;;;;;19.32;100.00;98387.70;109602;1250;73154;-66
2023/08/31 06:21:14;;;;;;;3.10;2.70;;;;;;;19.25;100.00;98393.98;109503;1250;60594;-67
2023/08/31 06:23:40;;;;;;;4.00;3.10;;;;;;;19.20;100.00;98397.75;109573;1251;59022;-72
2023/08/31 06:26:07;;;;;;;3.10;2.80;;;;;;;19.20;100.00;98406.64;109605;1250;59356;-69
2023/08/31 06:28:33;;;;;;;5.00;3.40;;;;;;;19.16;100.00;98406.83;109609;1250;68123;-69
2023/08/31 06:31:00;;;;;;;3.40;3.10;;;;;;;19.14;100.00;98412.23;109624;1250;60124;-71
2023/08/31 06:33:26;;;;;;;7.80;2.90;;;;;;;19.13;100.00;98416.98;109585;1250;61688;-72
2023/08/31 06:35:53;;;;;;;4.90;3.50;;;;;;;19.15;100.00;98421.70;109606;1250;60162;-71
2023/08/31 06:38:19;;;;;;;4.40;3.30;;;;;;;19.19;100.00;98428.58;109644;1250;73866;-73
2023/08/31 06:40:47;;;;;;;3.80;3.50;;;;;;;19.22;100.00;98431.04;109616;1250;66271;-68
2023/08/31 06:43:13;;;;;;;3.90;3.60;;;;;;;19.25;100.00;98430.96;109596;1250;71879;-65
2023/08/31 06:45:41;;;;;;;3.80;3.50;;;;;;;19.27;100.00;98430.77;109604;1250;60858;-64
2023/08/31 06:48:08;;;;;;;4.20;3.90;;;;;;;19.26;100.00;98434.44;109656;1250;59983;-67
2023/08/31 06:50:35;;;;;;;4.60;4.30;;;;;;;19.23;100.00;98432.95;109522;1249;74570;-67
2023/08/31 06:53:03;;;;;;;4.00;3.70;;;;;;;19.22;100.00;98434.27;109644;1250;67916;-64
2023/08/31 06:55:31;;;;;;;4.70;4.30;;;;;;;19.24;100.00;98436.90;109587;1250;72666;-63
2023/08/31 06:57:58;;;;;;;4.40;4.10;;;;;;;19.30;100.00;98437.84;109542;1250;61682;-68
2023/08/31 07:00:25;;;;;;;3.80;3.50;;;;;;;19.34;100.00;98436.11;109645;1250;60310;-69
2023/08/31 07:02:52;;;;;;;6.10;3.80;;;;;;;19.40;100.00;98439.98;109670;1250;75153;-68
2023/08/31 07:05:25;;;;;;;3.80;3.40;;;;;;;19.46;100.00;98446.91;109620;1249;66073;-67
2023/08/31 07:07:53;;;;;;;3.60;3.30;;;;;;;19.52;100.00;98450.37;109618;1250;72375;-69
2023/08/31 07:10:21;;;;;;;4.30;3.90;;;;;;;19.59;100.00;98452.94;109568;1250;60713;-69
2023/08/31 07:12:47;;;;;;;4.30;3.90;;;;;;;19.68;100.00;98457.67;109625;1250;59553;-69
2023/08/31 07:15:15;;;;;;;5.30;3.70;;;;;;;19.77;100.00;98457.93;109694;1250;74691;-72
2023/08/31 07:17:42;;;;;;;3.50;3.30;;;;;;;19.86;100.00;98461.27;109661;1249;67930;-72
2023/08/31 07:20:09;;;;;;;4.30;4.00;;;;;;;20.15;100.00;98471.02;109586;1250;58943;-68
2023/08/31 07:22:36;;;;;;;4.20;3.80;;;;;;;20.67;100.00;98474.93;109635;1250;61969;-68
2023/08/31 07:25:03;;;;;;;4.50;3.80;;;;;;;21.12;100.00;98473.04;109634;1250;60124;-71
2023/08/31 07:27:30;;;;;;;4.00;3.70;;;;;;;21.43;100.00;98467.46;109617;1251;74706;-67
2023/08/31 07:29:57;;;;;;;3.90;3.30;;;;;;;21.78;100.00;98465.77;109648;1251;67838;-71
2023/08/31 07:32:23;;;;;;;4.80;4.30;;;;;;;22.36;100.00;98459.20;109454;1250;72673;-71
2023/08/31 07:34:50;;;;;;;4.00;3.40;;;;;;;22.86;100.00;98451.94;109596;1250;62332;-71
2023/08/31 07:37:16;;;;;;;3.50;3.20;;;;;;;23.37;100.00;98442.70;109621;1250;60187;-71
2023/08/31 07:39:43;;;;;;;3.40;3.20;;;;;;;23.74;100.00;98434.77;109660;1250;73449;-71
2023/08/31 07:42:10;;;;;;;3.60;3.30;;;;;;;23.93;100.00;98435.31;109674;1250;66501;-71
2023/08/31 07:44:36;;;;;;;3.10;2.80;;;;;;;24.02;100.00;98434.06;109466;1250;72666;-71
2023/08/31 07:47:03;;;;;;;3.20;3.00;;;;;;;24.10;100.00;98434.08;109491;1250;59313;-71
2023/08/31 07:49:30;;;;;;;2.30;2.20;;;;;;;24.20;100.00;98432.28;109529;1250;60650;-71
2023/08/31 07:51:56;;;;;;;2.90;2.60;;;;;;;24.11;100.00;98431.36;109578;1250;74478;-71
2023/08/31 07:54:23;;;;;;;2.90;2.40;;;;;;;23.98;100.00;98431.48;109524;1250;68056;-71
2023/08/31 07:56:50;;;;;;;2.60;2.40;;;;;;;24.04;100.00;98432.32;109440;1250;71152;-71
2023/08/31 07:59:17;;;;;;;2.90;2.20;;;;;;;24.53;100.00;98434.60;109564;1250;60634;-71
2023/08/31 08:01:44;;;;;;;3.40;2.10;;;;;;;25.07;100.00;98432.27;109589;1250;59004;-71
2023/08/31 08:04:11;;;;;;;2.10;1.80;;;;;;;25.58;100.00;98433.02;109683;1250;73822;-71
2023/08/31 08:06:38;;;;;;;5.00;2.00;;;;;;;26.10;100.00;98430.79;109712;1250;67914;-71
2023/08/31 08:09:04;;;;;;;1.70;1.60;;;;;;;26.37;100.00;98429.12;109590;1250;72433;-71
2023/08/31 08:11:31;;;;;;;1.60;1.50;;;;;;;26.47;100.00;98430.65;109649;1252;59211;-71
2023/08/31 08:13:58;;;;;;;2.40;1.60;;;;;;;26.76;100.00;98430.14;109640;1250;60122;-71
2023/08/31 08:16:24;;;;;;;3.30;2.00;;;;;;;27.03;100.00;98433.11;109666;1250;73541;-71
2023/08/31 08:18:51;;;;;;;3.20;1.80;;;;;;;27.08;100.00;98436.63;109704;1250;67319;-71
2023/08/31 08:21:20;;;;;;;3.30;2.20;;;;;;;27.26;100.00;98437.73;109705;1250;72410;-71
2023/08/31 08:23:47;;;;;;;2.30;2.10;;;;;;;27.62;100.00;98439.05;109710;1250;58955;-71
2023/08/31 08:26:13;;;;;;;2.20;2.00;;;;;;;27.82;100.00;98433.95;109553;1250;58933;-72
2023/08/31 08:28:40;;;;;;;1.80;1.70;;;;;;;27.91;100.00;98436.94;109707;1250;73825;-72
2023/08/31 08:31:07;;;;;;;3.10;2.10;;;;;;;27.82;100.00;98438.07;109686;1250;68136;-71
2023/08/31 08:33:33;;;;;;;5.80;2.10;;;;;;;27.49;100.00;98441.39;109625;1250;71317;-71
2023/08/31 08:36:00;;;;;;;3.70;1.90;;;;;;;27.12;100.00;98450.23;109636;1251;59015;-71
2023/08/31 08:38:27;;;;;;;2.10;2.00;;;;;;;26.76;100.00;98446.23;109619;1250;60110;-70
2023/08/31 08:40:53;;;;;;;2.60;2.30;;;;;;;26.38;100.00;98456.30;109724;1250;74729;-70
2023/08/31 08:43:24;;;;;;;2.40;2.30;;;;;;;26.09;100.00;98459.19;109701;1250;67881;-70
2023/08/31 08:45:52;;;;;;;2.50;2.30;;;;;;;25.78;100.00;98460.16;109675;1250;72493;-70
2023/08/31 08:48:18;;;;;;;3.90;2.60;;;;;;;25.59;100.00;98460.90;109573;1250;60599;-70
2023/08/31 08:50:45;;;;;;;3.30;2.50;;;;;;;25.51;100.00;98471.09;109697;1250;58920;-70
2023/08/31 08:53:13;;;;;;;2.30;2.10;;;;;;;25.50;100.00;98471.80;109640;1251;73494;-70
2023/08/31 08:55:41;;;;;;;5.20;2.10;;;;;;;25.76;100.00;98468.73;109719;1250;67835;-70
2023/08/31 08:58:07;;;;;;;3.90;2.00;;;;;;;26.20;100.00;98469.18;109661;1250;71065;-70
2023/08/31 09:00:34;;;;;;;2.50;2.20;;;;;;;26.74;100.00;98470.02;109700;1250;59024;-71
2023/08/31 09:03:02;;;;;;;2.10;1.90;;;;;;;27.25;100.00;98469.10;109521;1250;58869;-70
2023/08/31 09:05:32;;;;;;;2.00;1.90;;;;;;;27.86;100.00;98473.54;109739;1250;74579;-71
2023/08/31 09:08:02;;;;;;;1.90;1.80;;;;;;;28.25;100.00;98468.87;109774;1250;68690;-71
2023/08/31 09:10:43;;;;;;;2.10;1.90;;;;;;;28.20;100.00;98470.17;109662;1250;72860;-71
2023/08/31 09:13:13;;;;;;;3.30;2.00;;;;;;;28.12;100.00;98474.68;109705;1250;60318;-71
2023/08/31 09:15:41;;;;;;;4.40;2.10;;;;;;;28.03;100.00;98476.23;109690;1250;60589;-71
2023/08/31 09:18:16;;;;;;;2.40;1.90;;;;;;;27.83;100.00;98472.63;109692;1250;73145;-71
2023/08/31 09:20:45;;;;;;;4.30;1.80;;;;;;;27.58;100.00;98475.73;109674;1250;68121;-71
2023/08/31 09:23:12;;;;;;;2.30;2.10;;;;;;;27.41;100.00;98475.48;109627;1250;72518;-71
2023/08/31 09:25:48;;;;;;;3.30;2.00;;;;;;;27.53;100.00;98470.96;109739;1250;58970;-71
2023/08/31 09:28:18;;;;;;;2.50;2.30;;;;;;;27.87;100.00;98466.86;109694;1250;60383;-71
2023/08/31 09:30:49;;;;;;;2.40;2.00;;;;;;;28.33;100.00;98469.88;109738;1250;73373;-71
2023/08/31 09:33:17;;;;;;;3.10;2.10;;;;;;;28.86;100.00;98467.48;109711;1250;67880;-71
2023/08/31 09:35:49;;;;;;;3.00;1.70;;;;;;;29.32;100.00;98463.98;109598;1250;72777;-71
2023/08/31 09:38:16;;;;;;;1.70;1.60;;;;;;;29.71;97.17;98473.50;109485;1251;59741;-71
2023/08/31 09:40:42;;;;;;;2.00;1.80;;;;;;;30.01;94.26;98471.80;109690;1250;60014;-71
2023/08/31 09:43:18;;;;;;;3.40;2.80;;;;;;;30.28;91.52;98473.96;109724;1250;74464;-71
2023/08/31 09:45:45;;;;;;;5.80;2.00;;;;;;;30.29;87.06;98472.27;109587;1250;66736;-71
2023/08/31 09:48:13;;;;;;;3.10;2.00;;;;;;;30.01;84.61;98478.73;109658;1250;72557;-70
2023/08/31 09:50:40;;;;;;;2.50;2.30;;;;;;;29.65;84.89;98484.12;109529;1253;59259;-70
2023/08/31 09:53:06;;;;;;;2.10;2.00;;;;;;;29.16;86.33;98482.52;109626;1250;60178;-72
2023/08/31 09:55:34;;;;;;;2.80;2.20;;;;;;;28.69;88.47;98485.48;109484;1250;74683;-71
2023/08/31 09:58:01;;;;;;;2.90;2.60;;;;;;;28.29;90.12;98489.59;109595;1250;67749;-71
2023/08/31 10:00:41;;;;;;;2.60;2.40;;;;;;;27.86;91.97;98489.16;109695;1250;72467;-71
2023/08/31 10:03:08;;;;;;;2.60;2.40;;;;;;;27.52;94.65;98489.68;109520;1250;59852;-70
2023/08/31 10:05:35;;;;;;;2.80;2.60;;;;;;;27.23;97.61;98490.88;109582;1250;58835;-71
2023/08/31 10:08:01;;;;;;;3.40;3.00;;;;;;;26.98;99.22;98493.68;109560;1250;75312;-71
2023/08/31 10:10:29;;;;;;;2.90;2.70;;;;;;;26.71;100.00;98489.01;109587;1250;66862;-70
2023/08/31 10:12:56;;;;;;;3.20;2.90;;;;;;;26.43;100.00;98490.04;109644;1250;71257;-70
2023/08/31 10:15:23;;;;;;;1.80;1.70;;;;;;;26.45;100.00;98491.98;109478;1250;59458;-69
2023/08/31 10:17:49;;;;;;;2.20;2.10;;;;;;;26.58;100.00;98494.16;109618;1250;60339;-68
2023/08/31 10:20:16;;;;;;;2.50;2.10;;;;;;;26.61;100.00;98498.60;109430;1250;73011;-67
2023/08/31 10:22:43;;;;;;;2.90;2.30;;;;;;;26.52;100.00;98503.69;109452;1250;66718;-71
2023/08/31 10:25:11;;;;;;;2.20;2.00;;;;;;;26.35;100.00;98506.46;109609;1249;72500;-63
2023/08/31 10:27:39;;;;;;;2.50;2.30;;;;;;;26.09;100.00;98506.83;109642;1254;59566;-67
2023/08/31 10:30:25;;;;;;;2.90;2.40;;;;;;;25.82;100.00;98510.72;109638;1250;60090;-67
2023/08/31 10:33:20;;;;;;;6.60;2.90;;;;;;;25.60;100.00;98512.90;109666;1250;74951;-67
2023/08/31 10:35:47;;;;;;;2.80;2.30;;;;;;;25.57;100.00;98512.89;109589;1250;66430;-67
2023/08/31 10:38:24;;;;;;;3.20;2.90;;;;;;;25.64;100.00;98513.89;109475;1251;71241;-68
2023/08/31 10:41:06;;;;;;;2.60;2.30;;;;;;;25.69;100.00;98514.64;109512;1250;59011;-66
2023/08/31 10:44:02;;;;;;;2.60;2.40;;;;;;;25.69;100.00;98517.32;109542;1250;59148;-67
2023/08/31 10:46:33;;;;;;;2.90;2.70;;;;;;;25.59;100.00;98518.70;109337;1250;75286;-66
2023/08/31 10:49:14;;;;;;;2.60;2.40;;;;;;;25.39;100.00;98518.02;109466;1250;66523;-66
2023/08/31 10:51:42;;;;;;;3.20;2.20;;;;;;;25.38;100.00;98522.02;109433;1250;72987;-67
2023/08/31 10:54:35;;;;;;;2.70;2.50;;;;;;;25.48;100.00;98528.17;109567;1250;59188;-67
2023/08/31 10:57:04;;;;;;;3.40;2.70;;;;;;;25.52;100.00;98525.16;109516;1251;60468;-57
2023/08/31 10:59:41;;;;;;;3.40;2.90;;;;;;;25.51;100.00;98529.35;109634;1250;73433;-60
2023/08/31 11:02:08;;;;;;;3.20;2.70;;;;;;;25.34;100.00;98533.48;109626;1250;67742;-58
2023/08/31 11:05:03;;;;;;;5.00;2.70;;;;;;;25.13;100.00;98537.23;109624;1250;71520;-56
2023/08/31 11:07:30;;;;;;;3.20;2.40;;;;;;;24.89;100.00;98544.41;109611;1250;61228;-75
2023/08/31 11:10:20;;;;;;;2.90;2.50;;;;;;;24.71;100.00;98546.29;109585;1251;58912;-69
2023/08/31 11:12:52;;;;;;;2.80;2.60;;;;;;;24.43;100.00;98553.31;109628;1255;74684;-69
2023/08/31 11:15:23;;;;;;;3.40;3.10;;;;;;;24.13;100.00;98554.20;109682;1250;66871;-69
2023/08/31 11:17:50;;;;;;;3.40;2.70;;;;;;;23.83;100.00;98555.57;109607;1250;71946;-69
2023/08/31 11:20:17;;;;;;;3.70;3.40;;;;;;;23.57;100.00;98553.48;109646;1250;60283;-69
2023/08/31 11:22:54;;;;;;;3.50;2.90;;;;;;;23.39;100.00;98557.75;109623;1250;59181;-68
2023/08/31 11:25:24;;;;;;;2.90;2.60;;;;;;;23.27;100.00;98563.79;109570;1250;73824;-71
2023/08/31 11:28:05;;;;;;;3.80;3.60;;;;;;;23.21;100.00;98564.99;109660;1250;67151;-70
2023/08/31 11:30:32;;;;;;;3.70;3.20;;;;;;;23.17;100.00;98571.19;109608;1250;71786;-65